Time;durP1;ratioP1;P1;durP2;ratioP2;P2;SDS_P1;SDS_P2;PMS_P1;PMS_P2;Temp;Humidity;BMP_temperature;BMP_pressure;BME280_temperature;BME280_humidity;BME280_pressure;Samples;Min_cycle;Max_cycle;Signal;HPM_P1;HPM_P2
2023/01/29 00:01:30;;;;;;;24.08;11.93;;;;;;;-8.68;70.61;100079.63;4787898;29;20093;-87
2023/01/29 00:03:56;;;;;;;26.33;11.85;;;;;;;-8.67;70.68;100087.41;4786244;29;20034;-92
2023/01/29 00:06:22;;;;;;;28.75;12.52;;;;;;;-8.69;70.67;100083.03;4757288;30;20141;-84
2023/01/29 00:08:48;;;;;;;31.17;13.32;;;;;;;-8.69;70.88;100086.50;4771884;30;20138;-87
2023/01/29 00:11:19;;;;;;;24.30;11.40;;;;;;;-8.65;70.79;100085.72;4789536;30;20057;-87
2023/01/29 00:13:45;;;;;;;32.80;11.55;;;;;;;-8.68;70.74;100085.66;4760781;30;20063;-88
2023/01/29 00:16:11;;;;;;;30.98;12.68;;;;;;;-8.66;70.35;100089.13;4775185;30;20047;-84
2023/01/29 00:18:38;;;;;;;28.25;13.15;;;;;;;-8.68;70.33;100084.81;4759846;30;20047;-85
2023/01/29 00:21:16;;;;;;;25.58;12.13;;;;;;;-8.68;70.47;100093.44;4773838;30;20051;-85
2023/01/29 00:23:42;;;;;;;39.33;16.30;;;;;;;-8.72;70.48;100089.09;4766126;30;20504;-83
2023/01/29 00:26:09;;;;;;;36.22;14.27;;;;;;;-8.74;70.50;100079.56;4774381;30;20059;-86
2023/01/29 00:28:37;;;;;;;35.20;16.05;;;;;;;-8.70;70.65;100082.19;4714827;30;1375672;-85
2023/01/29 00:31:08;;;;;;;41.22;16.05;;;;;;;-8.69;70.53;100078.72;4775217;30;20059;-87
2023/01/29 00:33:34;;;;;;;35.72;16.65;;;;;;;-8.62;70.31;100075.34;4792185;30;20051;-86
2023/01/29 00:36:08;;;;;;;38.33;17.40;;;;;;;-8.56;70.36;100085.78;4791332;30;20054;-86
2023/01/29 00:38:35;;;;;;;38.10;15.40;;;;;;;-8.63;70.31;100085.72;4760659;30;20055;-84
2023/01/29 00:46:38;;;;;;;47.20;19.00;;;;;;;-8.72;70.07;100068.34;4791509;30;20142;-86
2023/01/29 00:49:04;;;;;;;42.72;20.95;;;;;;;-8.73;70.28;100089.91;4790635;30;20128;-86
2023/01/29 00:51:30;;;;;;;47.08;20.77;;;;;;;-8.68;70.37;100085.66;4762039;30;20048;-89
2023/01/29 00:53:57;;;;;;;38.30;17.17;;;;;;;-8.59;70.31;100085.75;4797690;30;20058;-87
2023/01/29 00:56:28;;;;;;;55.08;21.52;;;;;;;-8.62;70.11;100096.06;4798997;30;20066;-86
2023/01/29 00:58:54;;;;;;;61.95;23.85;;;;;;;-8.65;69.59;100090.88;4748123;30;20051;-86
2023/01/29 01:03:04;;;;;;;65.28;26.65;;;;;;;-8.68;70.32;100088.25;4766097;30;20047;-86
2023/01/29 01:04:08;;;;;;;72.22;26.60;;;;;;;-8.71;70.38;100084.78;4783087;30;20051;-85
2023/01/29 01:06:40;;;;;;;66.25;25.98;;;;;;;-8.69;70.27;100083.91;4779963;30;20062;-84
2023/01/29 01:11:51;;;;;;;84.55;27.20;;;;;;;-8.56;70.29;100067.63;4791182;30;20515;-86
2023/01/29 01:14:18;;;;;;;75.80;25.20;;;;;;;-8.50;70.33;100084.94;4792199;30;20051;-86
2023/01/29 01:16:45;;;;;;;63.15;24.85;;;;;;;-8.49;70.28;100075.47;4775783;30;20074;-86
2023/01/29 01:19:12;;;;;;;56.10;22.75;;;;;;;-8.40;70.13;100073.81;4776410;30;20050;-86
2023/01/29 01:21:38;;;;;;;57.85;22.83;;;;;;;-8.45;69.65;100078.09;4790921;29;20161;-84
2023/01/29 01:24:04;;;;;;;72.30;27.45;;;;;;;-8.45;69.93;100072.91;4793449;30;20058;-84
2023/01/29 01:26:33;;;;;;;72.03;24.25;;;;;;;-8.42;69.51;100066.88;4790127;30;20055;-85
2023/01/29 01:28:59;;;;;;;56.30;24.13;;;;;;;-8.48;69.57;100072.88;4775673;30;20509;-85
2023/01/29 01:31:25;;;;;;;60.00;23.80;;;;;;;-8.58;69.95;100066.72;4792508;30;20182;-84
2023/01/29 01:33:53;;;;;;;59.25;24.67;;;;;;;-8.54;69.78;100071.94;4794340;30;20047;-83
2023/01/29 01:36:18;;;;;;;63.28;23.13;;;;;;;-8.57;69.62;100078.84;4791099;29;20051;-85
2023/01/29 01:38:44;;;;;;;54.83;22.42;;;;;;;-8.57;69.65;100071.09;4791254;30;20061;-85
2023/01/29 01:41:14;;;;;;;52.13;21.85;;;;;;;-8.70;69.92;100065.75;4790686;30;20051;-85
2023/01/29 01:43:54;;;;;;;50.38;21.85;;;;;;;-8.63;69.84;100063.25;4774607;30;20085;-84
2023/01/29 01:46:21;;;;;;;26.88;12.88;;;;;;;-8.70;70.08;100074.41;4774169;30;20051;-86
2023/01/29 01:49:02;;;;;;;43.50;18.42;;;;;;;-8.83;69.72;100069.97;4789394;30;20055;-87
2023/01/29 01:51:31;;;;;;;42.63;19.88;;;;;;;-8.88;70.20;100056.09;4775278;30;20142;-86
2023/01/29 01:54:08;;;;;;;47.33;17.23;;;;;;;-8.81;70.41;100068.25;4792106;29;20141;-86
2023/01/29 01:56:42;;;;;;;39.28;19.00;;;;;;;-8.68;70.11;100069.25;4792003;30;20063;-84
2023/01/29 01:59:12;;;;;;;41.67;17.73;;;;;;;-8.64;69.83;100061.50;4775217;30;20086;-84
2023/01/29 02:01:41;;;;;;;42.55;16.27;;;;;;;-8.65;69.89;100058.88;4758968;30;20043;-85
2023/01/29 02:09:56;;;;;;;37.17;16.15;;;;;;;-8.78;70.09;100060.50;4773431;30;20055;-85
2023/01/29 02:12:22;;;;;;;38.03;15.82;;;;;;;-8.85;70.04;100066.50;4774091;30;20043;-85
2023/01/29 02:14:50;;;;;;;39.97;17.08;;;;;;;-9.01;70.33;100060.28;4773340;30;20124;-84
2023/01/29 02:17:18;;;;;;;41.20;17.45;;;;;;;-8.91;70.57;100058.66;4788878;30;20058;-84
2023/01/29 02:20:23;;;;;;;37.30;14.13;;;;;;;-8.79;70.23;100061.38;4773519;30;20054;-85
2023/01/29 02:22:58;;;;;;;40.65;16.83;;;;;;;-8.77;70.22;100063.97;4788986;30;20055;-86
2023/01/29 02:25:51;;;;;;;47.50;18.20;;;;;;;-8.81;69.96;100076.03;4774137;30;20083;-85
2023/01/29 02:28:38;;;;;;;32.88;13.02;;;;;;;-8.84;70.49;100063.03;4788847;29;20063;-85
2023/01/29 02:31:15;;;;;;;32.47;15.57;;;;;;;-8.83;70.51;100067.38;4789090;30;20507;-86
2023/01/29 02:33:54;;;;;;;38.88;17.75;;;;;;;-8.89;70.35;100067.31;4790155;30;20059;-84
2023/01/29 02:36:49;;;;;;;41.53;15.45;;;;;;;-8.81;70.33;100060.47;4758942;30;20054;-84
2023/01/29 02:39:21;;;;;;;38.38;16.05;;;;;;;-8.89;70.26;100064.72;4758871;30;20508;-86
2023/01/29 02:42:10;;;;;;;40.80;16.77;;;;;;;-8.83;70.26;100064.78;4774680;30;20058;-85
2023/01/29 02:44:46;;;;;;;27.80;14.77;;;;;;;-8.89;69.97;100062.13;4758399;30;20499;-86
2023/01/29 02:47:20;;;;;;;33.92;15.38;;;;;;;-8.88;69.91;100050.91;4775143;30;20080;-86
2023/01/29 02:50:05;;;;;;;35.25;15.65;;;;;;;-8.78;70.28;100057.94;4766321;30;20131;-84
2023/01/29 02:52:49;;;;;;;29.92;13.48;;;;;;;-8.79;70.29;100050.16;4791910;30;20104;-84
2023/01/29 02:55:25;;;;;;;27.73;13.63;;;;;;;-8.71;70.23;100059.72;4761277;30;20047;-85
2023/01/29 02:57:56;;;;;;;28.73;13.15;;;;;;;-8.74;69.94;100041.53;4774721;30;20058;-84
2023/01/29 03:00:26;;;;;;;29.20;13.70;;;;;;;-8.70;70.26;100060.59;4773558;30;20522;-86
2023/01/29 03:03:15;;;;;;;27.50;13.02;;;;;;;-8.65;69.63;100058.88;4773823;30;20078;-85
2023/01/29 03:06:05;;;;;;;26.38;13.48;;;;;;;-8.64;69.83;100058.94;4772757;30;20059;-84
2023/01/29 03:08:44;;;;;;;28.30;13.45;;;;;;;-8.61;69.80;100055.50;4743504;30;20047;-87
2023/01/29 03:11:12;;;;;;;30.65;13.10;;;;;;;-8.59;69.57;100054.63;4772545;30;20047;-84
2023/01/29 03:14:06;;;;;;;32.65;13.52;;;;;;;-8.60;69.35;100057.22;4743028;30;20055;-85
2023/01/29 03:16:35;;;;;;;29.40;13.07;;;;;;;-8.63;69.08;100062.38;4772617;30;20078;-83
2023/01/29 03:19:07;;;;;;;26.88;11.88;;;;;;;-8.68;69.22;100059.75;4773890;30;20066;-84
2023/01/29 03:21:57;;;;;;;19.13;9.27;;;;;;;-8.81;69.19;100065.66;4773192;30;20083;-86
2023/01/29 03:33:44;;;;;;;19.08;8.98;;;;;;;-8.87;69.77;100058.72;4776933;30;20088;-84
2023/01/29 03:36:22;;;;;;;25.65;10.43;;;;;;;-8.81;69.62;100053.56;4774438;30;20450;-86
2023/01/29 03:38:48;;;;;;;17.88;9.30;;;;;;;-8.70;69.86;100056.25;4763274;30;20059;-88
2023/01/29 03:41:20;;;;;;;24.67;10.23;;;;;;;-8.71;69.43;100070.09;4766182;30;20403;-88
2023/01/29 03:44:23;;;;;;;18.00;9.00;;;;;;;-8.65;69.45;100049.41;4763879;30;20136;-88
2023/01/29 03:46:58;;;;;;;19.92;10.00;;;;;;;-8.67;68.82;100069.25;4780952;30;20062;-88
2023/01/29 03:49:51;;;;;;;25.08;10.85;;;;;;;-8.71;69.04;100064.91;4762222;30;20043;-89
2023/01/29 03:52:33;;;;;;;17.02;10.20;;;;;;;-8.70;69.09;100061.44;4777562;30;20447;-89
2023/01/29 03:55:16;;;;;;;16.65;9.18;;;;;;;-8.68;68.73;100064.94;4781090;30;20059;-91
2023/01/29 03:58:18;;;;;;;22.55;10.48;;;;;;;-8.73;69.11;100063.13;4773252;30;20093;-85
2023/01/29 04:01:08;;;;;;;18.70;10.07;;;;;;;-8.81;68.96;100053.56;4757788;30;20130;-85
2023/01/29 04:03:47;;;;;;;19.15;10.68;;;;;;;-8.74;69.13;100064.88;4735066;30;20074;-89
2023/01/29 04:06:20;;;;;;;22.75;11.52;;;;;;;-8.70;68.98;100064.03;4758851;30;20392;-92
2023/01/29 04:09:10;;;;;;;27.10;12.07;;;;;;;-8.62;68.84;100066.69;4757776;30;20108;-86
2023/01/29 04:11:47;;;;;;;26.65;12.18;;;;;;;-8.58;69.04;100066.72;4774600;30;20047;-90
2023/01/29 04:14:14;;;;;;;29.17;13.38;;;;;;;-8.54;68.76;100062.44;4754325;30;20054;-85
2023/01/29 04:16:51;;;;;;;26.70;12.07;;;;;;;-8.49;68.86;100060.78;4794500;29;20488;-86
2023/01/29 04:19:28;;;;;;;25.35;11.98;;;;;;;-8.47;68.67;100069.41;4778257;30;20055;-86
2023/01/29 04:22:04;;;;;;;23.73;11.48;;;;;;;-8.56;68.50;100059.84;4782322;30;20055;-86
2023/01/29 04:24:31;;;;;;;18.98;9.45;;;;;;;-8.58;68.26;100058.97;4763209;30;20608;-85
2023/01/29 04:27:15;;;;;;;24.90;10.57;;;;;;;-8.57;68.37;100054.66;4776079;30;20051;-81
2023/01/29 04:30:13;;;;;;;18.83;9.65;;;;;;;-8.60;68.14;100052.91;4762465;30;20048;-86
2023/01/29 04:33:09;;;;;;;15.75;7.47;;;;;;;-8.69;68.38;100052.81;4776421;30;20055;-86
2023/01/29 04:35:44;;;;;;;18.90;7.90;;;;;;;-8.75;68.46;100052.78;4763106;30;20059;-84
2023/01/29 04:38:47;;;;;;;17.48;9.20;;;;;;;-8.74;68.45;100053.63;4784991;30;20034;-88
2023/01/29 04:41:31;;;;;;;11.52;7.13;;;;;;;-8.77;68.46;100063.97;4782197;30;20055;-84
2023/01/29 04:44:13;;;;;;;16.50;7.93;;;;;;;-8.91;68.97;100053.47;4777844;30;20051;-83
2023/01/29 04:47:05;;;;;;;15.18;7.30;;;;;;;-8.87;68.85;100055.25;4760295;30;20085;-82
2023/01/29 04:49:44;;;;;;;15.35;7.22;;;;;;;-8.87;68.99;100057.84;4785560;30;20138;-83
2023/01/29 04:52:20;;;;;;;17.23;7.30;;;;;;;-8.72;68.71;100062.31;4777272;30;20171;-90
2023/01/29 04:54:56;;;;;;;11.93;6.57;;;;;;;-8.75;68.92;100057.97;4799502;29;20048;-83
2023/01/29 04:57:44;;;;;;;12.45;7.55;;;;;;;-8.76;68.77;100056.22;4793059;30;20130;-83
2023/01/29 05:00:19;;;;;;;9.23;5.00;;;;;;;-8.74;67.84;100057.09;4778243;30;20058;-86
2023/01/29 05:02:46;;;;;;;16.67;6.82;;;;;;;-8.81;67.91;100055.31;4767843;30;20082;-86
2023/01/29 05:05:13;;;;;;;11.02;6.13;;;;;;;-8.81;67.68;100050.13;4795944;30;20069;-85
2023/01/29 05:07:41;;;;;;;13.02;7.43;;;;;;;-8.85;67.91;100063.91;4769620;30;20491;-86
2023/01/29 05:10:09;;;;;;;16.50;7.78;;;;;;;-8.78;67.90;100051.88;4796576;29;20142;-86
2023/01/29 05:12:37;;;;;;;17.13;7.38;;;;;;;-8.77;67.47;100053.59;4767551;30;20161;-83
2023/01/29 05:15:11;;;;;;;15.52;6.32;;;;;;;-8.82;67.72;100051.84;4796250;30;20051;-83
2023/01/29 05:17:37;;;;;;;13.07;6.22;;;;;;;-8.90;67.83;100052.63;4784626;30;20047;-84
2023/01/29 05:20:03;;;;;;;11.77;6.03;;;;;;;-8.92;67.78;100043.97;4778109;30;20043;-85
2023/01/29 05:22:29;;;;;;;12.60;6.57;;;;;;;-8.85;67.48;100038.00;4783509;30;20055;-88
2023/01/29 05:24:55;;;;;;;12.35;6.40;;;;;;;-8.76;67.71;100035.50;4779829;30;20047;-84
2023/01/29 05:30:18;;;;;;;10.32;6.28;;;;;;;-8.76;67.54;100043.28;4779307;30;20040;-87
2023/01/29 05:32:44;;;;;;;10.27;6.28;;;;;;;-8.69;67.55;100032.06;4764259;30;20077;-86
2023/01/29 05:35:13;;;;;;;11.20;6.53;;;;;;;-8.57;67.06;100042.56;4779400;30;20050;-86
2023/01/29 05:37:39;;;;;;;14.93;7.50;;;;;;;-8.48;67.04;100046.09;4768002;30;20107;-86
2023/01/29 05:40:07;;;;;;;19.02;7.15;;;;;;;-8.49;66.83;100034.00;4769891;30;20047;-86
2023/01/29 05:42:33;;;;;;;13.98;6.75;;;;;;;-8.45;66.59;100046.13;4782532;30;20060;-88
2023/01/29 05:44:59;;;;;;;16.30;8.20;;;;;;;-8.33;66.50;100052.22;4780063;30;20047;-85
2023/01/29 05:47:25;;;;;;;14.40;7.38;;;;;;;-8.40;66.16;100050.47;4764353;30;20055;-86
2023/01/29 05:49:53;;;;;;;17.42;8.00;;;;;;;-8.46;66.07;100045.25;4762441;30;20101;-86
2023/01/29 05:52:21;;;;;;;;;;;;;;;-8.39;66.21;100043.56;4779186;30;20062;-89
2023/01/29 05:54:47;;;;;;;16.45;7.35;;;;;;;-8.45;65.92;100046.13;4765064;30;19956;-88
2023/01/29 05:57:15;;;;;;;18.65;8.52;;;;;;;-8.47;66.18;100032.25;4787242;30;20051;-87
2023/01/29 05:59:41;;;;;;;9.70;4.82;;;;;;;-8.32;65.67;100032.34;4772756;30;20044;-87
2023/01/29 06:02:08;;;;;;;21.92;9.98;;;;;;;-8.46;65.94;100034.00;4770866;30;20115;-87
2023/01/29 06:04:34;;;;;;;13.23;7.07;;;;;;;-8.51;65.91;100033.09;4786716;30;20059;-87
2023/01/29 06:07:02;;;;;;;25.08;8.13;;;;;;;-8.44;65.80;100043.53;4783082;30;20055;-85
2023/01/29 06:09:28;;;;;;;18.15;9.00;;;;;;;-8.38;65.81;100042.72;4766367;30;20077;-85
2023/01/29 06:11:53;;;;;;;19.35;9.45;;;;;;;-8.28;65.92;100054.84;4786427;30;20055;-88
2023/01/29 06:14:19;;;;;;;15.82;8.05;;;;;;;-8.28;65.52;100044.47;4785996;30;20047;-84
2023/01/29 06:16:45;;;;;;;22.50;10.77;;;;;;;-8.20;65.41;100042.78;4785129;30;20077;-85
2023/01/29 06:19:11;;;;;;;25.23;11.40;;;;;;;-8.12;65.28;100027.31;4767180;30;20055;-85
2023/01/29 06:21:37;;;;;;;20.13;9.13;;;;;;;-8.08;64.65;100045.50;4766639;30;20051;-85
2023/01/29 06:24:03;;;;;;;23.20;9.55;;;;;;;-8.15;64.84;100046.31;4768375;30;20051;-87
2023/01/29 06:26:29;;;;;;;25.08;11.32;;;;;;;-8.06;64.64;100043.75;4779089;30;20093;-84
2023/01/29 06:28:55;;;;;;;18.42;8.90;;;;;;;-8.06;64.45;100046.34;4760517;30;20064;-84
2023/01/29 06:31:21;;;;;;;22.80;10.05;;;;;;;-8.00;64.50;100050.72;4775660;30;20056;-85
2023/01/29 06:33:46;;;;;;;19.60;8.32;;;;;;;-7.88;64.07;100055.97;4760489;30;20098;-86
2023/01/29 06:36:12;;;;;;;24.60;9.43;;;;;;;-8.04;64.18;100048.09;4770567;30;20078;-84
2023/01/29 06:38:38;;;;;;;20.85;9.73;;;;;;;-8.01;64.04;100053.28;4759213;30;20052;-85
2023/01/29 06:41:12;;;;;;;25.83;9.98;;;;;;;-8.10;64.16;100049.78;4759479;30;20569;-83
2023/01/29 06:43:39;;;;;;;17.77;7.55;;;;;;;-7.99;63.90;100047.25;4750859;30;20044;-86
2023/01/29 06:46:07;;;;;;;20.13;9.57;;;;;;;-7.83;63.82;100036.09;4772873;30;20052;-86
2023/01/29 06:48:32;;;;;;;18.98;8.00;;;;;;;-7.78;63.51;100043.03;4779728;30;20074;-84
2023/01/29 06:51:06;;;;;;;21.08;9.82;;;;;;;-7.77;63.31;100043.06;4781229;30;20056;-84
2023/01/29 06:53:36;;;;;;;17.17;8.73;;;;;;;-7.84;63.33;100036.09;4770512;30;20048;-85
2023/01/29 06:56:02;;;;;;;;;;;;;;;-7.65;63.46;100032.72;4757323;30;20052;-84
2023/01/29 06:58:28;;;;;;;22.63;9.45;;;;;;;-7.74;62.98;100027.50;4773036;30;20398;-84
2023/01/29 07:01:01;;;;;;;22.20;10.02;;;;;;;-7.70;63.25;100029.25;4763977;30;20059;-86
2023/01/29 07:03:26;;;;;;;18.77;10.30;;;;;;;-7.59;63.20;100030.19;4767435;30;20047;-89
2023/01/29 07:05:52;;;;;;;16.60;9.07;;;;;;;-7.65;62.66;100024.94;4759427;30;20091;-84
2023/01/29 07:08:21;;;;;;;15.75;8.13;;;;;;;-7.63;62.07;100028.44;4754970;30;20044;-88
2023/01/29 07:10:48;;;;;;;21.30;9.18;;;;;;;-7.66;61.92;100025.81;4772212;30;20458;-86
2023/01/29 07:13:15;;;;;;;18.33;8.35;;;;;;;-7.58;62.03;100031.03;4773040;30;20142;-86
2023/01/29 07:15:41;;;;;;;18.17;8.65;;;;;;;-7.46;62.36;100022.41;4763196;30;20050;-87
2023/01/29 07:18:11;;;;;;;15.77;8.10;;;;;;;-7.19;62.17;100017.31;4778641;30;20048;-81
2023/01/29 07:20:39;;;;;;;18.15;9.00;;;;;;;-7.19;61.19;100019.91;4752799;30;20042;-87
2023/01/29 07:23:07;;;;;;;18.45;7.90;;;;;;;-7.40;61.10;100019.84;4774303;30;20043;-84
2023/01/29 07:25:33;;;;;;;17.15;8.80;;;;;;;-7.38;61.61;100011.19;4776367;30;20054;-82
2023/01/29 07:28:00;;;;;;;18.10;7.82;;;;;;;-7.25;61.44;100022.50;4792374;30;20071;-82
2023/01/29 07:30:26;;;;;;;14.15;7.57;;;;;;;-7.30;61.17;100015.53;4775569;30;20151;-84
2023/01/29 07:32:52;;;;;;;15.32;7.85;;;;;;;-7.31;61.06;100027.66;4746335;30;20047;-83
2023/01/29 07:35:18;;;;;;;17.02;7.90;;;;;;;-7.37;61.65;100018.13;4773150;30;20221;-85
2023/01/29 07:37:44;;;;;;;14.48;6.60;;;;;;;-7.40;60.87;100012.06;4762286;30;20060;-83
2023/01/29 07:40:10;;;;;;;19.10;7.25;;;;;;;-7.29;61.12;100004.31;4787498;30;20132;-81
2023/01/29 07:42:42;;;;;;;13.93;5.82;;;;;;;-7.32;60.68;100010.34;4756535;30;20054;-83
2023/01/29 07:45:10;;;;;;;15.45;7.75;;;;;;;-7.37;61.12;100001.66;4773265;30;20143;-83
2023/01/29 07:47:36;;;;;;;16.02;6.80;;;;;;;-7.23;61.05;100012.97;4771871;30;20052;-83
2023/01/29 07:50:02;;;;;;;23.13;7.35;;;;;;;-7.14;60.28;100009.53;4745175;30;20048;-85
2023/01/29 07:52:31;;;;;;;12.05;7.32;;;;;;;-7.15;60.57;100000.00;4781420;30;20079;-84
2023/01/29 07:54:57;;;;;;;17.00;8.23;;;;;;;-6.93;60.58;100000.91;4785610;30;20051;-86
2023/01/29 07:57:23;;;;;;;16.67;8.43;;;;;;;-6.76;60.30;100003.53;4769072;30;20063;-87
2023/01/29 07:59:49;;;;;;;15.50;7.55;;;;;;;-6.71;59.82;100012.19;4768861;30;20071;-85
2023/01/29 08:02:15;;;;;;;14.98;7.13;;;;;;;-6.70;60.02;100001.78;4783727;30;20024;-86
2023/01/29 08:04:41;;;;;;;16.17;7.07;;;;;;;-6.76;59.63;99986.19;4781110;30;20074;-84
2023/01/29 08:07:08;;;;;;;14.45;8.00;;;;;;;-6.24;66.58;99996.56;4775200;30;20090;-83
2023/01/29 08:09:35;;;;;;;24.83;9.57;;;;;;;-6.09;61.66;99994.78;4763324;30;20048;-87
2023/01/29 08:12:01;;;;;;;24.75;10.52;;;;;;;-6.16;59.66;100002.63;4783452;30;20050;-85
2023/01/29 08:14:27;;;;;;;20.77;9.70;;;;;;;-6.24;59.37;99991.34;4778719;30;20076;-87
2023/01/29 08:16:52;;;;;;;32.08;12.07;;;;;;;-6.55;59.19;99994.84;4773258;30;20032;-87
2023/01/29 08:19:18;;;;;;;30.15;13.43;;;;;;;-6.44;59.71;99983.56;4848779;24;20071;-86
2023/01/29 08:21:44;;;;;;;21.30;11.05;;;;;;;-6.25;59.80;100000.00;4799733;30;20145;-84
2023/01/29 08:24:10;;;;;;;29.73;11.57;;;;;;;-6.39;59.19;99986.19;4803941;29;20114;-85
2023/01/29 08:26:36;;;;;;;28.80;13.63;;;;;;;-6.25;58.92;99992.19;4796826;29;20047;-84
2023/01/29 08:29:01;;;;;;;34.60;17.67;;;;;;;-6.36;58.60;99989.66;4783938;30;20043;-82
2023/01/29 08:31:27;;;;;;;46.85;16.77;;;;;;;-6.37;58.83;99997.44;4803785;29;20067;-89
2023/01/29 08:33:54;;;;;;;33.78;14.07;;;;;;;-6.56;58.76;100001.78;4808506;29;20066;-83
2023/01/29 08:36:20;;;;;;;36.33;16.52;;;;;;;-6.43;58.92;100000.03;4804349;29;20062;-88
2023/01/29 08:38:46;;;;;;;31.85;14.93;;;;;;;-6.48;59.04;99988.78;4796064;29;20047;-85
2023/01/29 08:41:13;;;;;;;34.85;14.95;;;;;;;-6.35;59.17;99990.50;4793661;30;20146;-84
2023/01/29 08:43:39;;;;;;;52.20;20.95;;;;;;;-6.36;58.63;99987.03;4794843;30;20051;-83
2023/01/29 08:46:06;;;;;;;64.97;23.55;;;;;;;-6.35;59.28;99987.91;4780025;30;20040;-81
2023/01/29 08:48:33;;;;;;;47.95;21.38;;;;;;;-6.31;59.04;99984.44;4800675;29;20043;-83
2023/01/29 08:51:01;;;;;;;35.55;16.20;;;;;;;-6.34;59.20;99980.97;4783112;30;20047;-81
2023/01/29 08:53:27;;;;;;;23.42;11.93;;;;;;;-6.28;59.06;99987.03;4794506;30;20039;-86
2023/01/29 08:55:53;;;;;;;28.08;10.20;;;;;;;-6.21;59.22;99982.66;4775900;30;20112;-85
2023/01/29 08:58:19;;;;;;;18.13;8.07;;;;;;;-6.26;58.44;99982.66;4780360;30;20524;-84
2023/01/29 09:00:46;;;;;;;29.65;8.55;;;;;;;-6.32;58.25;99982.66;4778382;30;20055;-87
2023/01/29 09:03:12;;;;;;;26.40;8.93;;;;;;;-6.49;59.12;99989.66;4785953;30;20047;-84
2023/01/29 09:05:39;;;;;;;19.58;9.48;;;;;;;-6.62;58.82;99984.47;4761495;30;20051;-87
2023/01/29 09:08:07;;;;;;;29.15;10.57;;;;;;;-6.42;58.72;99970.56;4775967;30;20066;-81
2023/01/29 09:10:34;;;;;;;22.92;9.35;;;;;;;-6.14;59.05;99981.78;4746513;30;20047;-83
2023/01/29 09:13:00;;;;;;;22.48;8.98;;;;;;;-6.11;57.62;99977.44;4779406;30;20059;-86
2023/01/29 09:15:27;;;;;;;20.80;8.10;;;;;;;-6.18;57.56;99980.06;4794985;29;20047;-84
2023/01/29 09:17:53;;;;;;;16.50;7.75;;;;;;;-6.09;57.88;99976.56;4791644;29;20089;-86
2023/01/29 09:20:19;;;;;;;19.40;7.72;;;;;;;-6.09;57.13;99971.34;4762169;30;20067;-85
2023/01/29 09:22:46;;;;;;;13.10;7.28;;;;;;;-6.08;57.30;99965.31;4778385;30;20055;-84
2023/01/29 09:25:12;;;;;;;11.88;6.72;;;;;;;-6.03;56.90;99968.75;4778715;30;20056;-82
2023/01/29 09:27:38;;;;;;;15.75;7.35;;;;;;;-5.89;56.95;99966.94;4797795;29;20051;-83
2023/01/29 09:30:07;;;;;;;14.32;6.97;;;;;;;-5.84;56.65;99966.91;4768235;30;20055;-85
2023/01/29 09:32:33;;;;;;;15.10;7.55;;;;;;;-5.71;56.39;99964.25;4778948;30;20050;-84
2023/01/29 09:34:59;;;;;;;14.68;7.72;;;;;;;-5.75;56.35;99959.94;4771336;30;20055;-87
2023/01/29 09:37:30;;;;;;;11.88;6.80;;;;;;;-5.83;56.17;99956.47;4791368;30;20047;-85
2023/01/29 09:39:59;;;;;;;14.85;7.32;;;;;;;-5.97;55.88;99953.97;4786582;30;20057;-82
2023/01/29 09:42:33;;;;;;;15.70;7.80;;;;;;;-5.96;56.14;99949.63;4759892;30;20111;-84
2023/01/29 09:45:14;;;;;;;12.80;7.30;;;;;;;-5.82;56.13;99945.22;4802401;29;20550;-85
2023/01/29 09:47:44;;;;;;;15.65;7.38;;;;;;;-5.79;55.98;99947.81;4771446;29;20078;-85
2023/01/29 09:50:27;;;;;;;18.63;8.00;;;;;;;-6.28;56.00;99929.78;4785675;30;20074;-87
2023/01/29 09:53:12;;;;;;;15.07;7.90;;;;;;;-6.14;56.27;99933.19;4784458;30;20055;-86
2023/01/29 09:55:44;;;;;;;18.63;8.82;;;;;;;-6.13;56.58;99932.34;4766250;30;20055;-85
2023/01/29 09:58:30;;;;;;;18.15;7.97;;;;;;;-6.17;56.59;99930.63;4784635;29;20043;-88
2023/01/29 10:01:11;;;;;;;20.95;8.52;;;;;;;-6.29;56.71;99935.84;4799609;30;20055;-85
2023/01/29 10:03:58;;;;;;;24.65;7.65;;;;;;;-6.33;57.06;99934.13;4789675;30;20047;-86
2023/01/29 10:06:35;;;;;;;23.77;10.13;;;;;;;-6.37;57.24;99932.41;4803593;29;20083;-85
2023/01/29 10:09:23;;;;;;;21.30;10.35;;;;;;;-6.45;57.10;99914.22;4751635;30;20111;-85
2023/01/29 10:11:52;;;;;;;25.15;10.98;;;;;;;-6.60;57.21;99920.31;4785179;30;20047;-87
2023/01/29 10:14:37;;;;;;;37.73;14.20;;;;;;;-6.76;57.89;99918.59;4782826;30;20070;-84
2023/01/29 10:17:31;;;;;;;36.17;16.10;;;;;;;-6.69;57.80;99922.06;4765706;30;20329;-85
2023/01/29 10:20:03;;;;;;;28.98;12.90;;;;;;;-6.70;58.06;99928.13;4781038;30;20183;-84
2023/01/29 10:22:32;;;;;;;25.65;12.35;;;;;;;-6.79;58.05;99923.78;4776336;30;20051;-83
2023/01/29 10:25:10;;;;;;;21.55;10.85;;;;;;;-6.89;58.02;99924.66;4777778;30;20167;-86
2023/01/29 10:27:41;;;;;;;17.60;8.30;;;;;;;-6.85;58.47;99921.19;4779701;30;20522;-85
2023/01/29 10:30:27;;;;;;;30.83;13.85;;;;;;;-6.94;58.54;99914.28;4766493;30;20043;-81
2023/01/29 10:32:57;;;;;;;37.78;13.25;;;;;;;-7.03;58.65;99914.28;4739055;30;20071;-83
2023/01/29 10:35:29;;;;;;;37.25;15.20;;;;;;;-7.07;58.60;99916.84;4765223;30;20119;-86
2023/01/29 10:38:01;;;;;;;30.65;13.30;;;;;;;-7.14;59.16;99916.88;4780800;30;20115;-83
2023/01/29 10:41:04;;;;;;;24.85;12.10;;;;;;;-7.12;58.74;99925.53;4764091;30;20099;-84
2023/01/29 10:43:51;;;;;;;28.52;11.80;;;;;;;-7.26;58.54;99903.00;4765052;30;20058;-86
2023/01/29 10:46:39;;;;;;;22.95;10.82;;;;;;;-7.02;58.60;99917.75;4804596;30;20138;-84
2023/01/29 10:49:46;;;;;;;28.52;11.48;;;;;;;-6.99;58.69;99915.16;4808123;29;20051;-84
2023/01/29 10:52:15;;;;;;;24.02;9.52;;;;;;;-6.90;58.39;99904.75;4770688;29;20051;-84
2023/01/29 10:55:07;;;;;;;20.65;9.52;;;;;;;-7.10;58.01;99903.03;4763467;30;20047;-83
2023/01/29 10:57:51;;;;;;;22.00;9.70;;;;;;;-7.02;58.44;99920.34;4772106;29;20047;-84
2023/01/29 11:00:34;;;;;;;24.67;9.30;;;;;;;-7.06;58.44;99923.81;4777194;30;20054;-86
2023/01/29 11:03:20;;;;;;;24.90;10.48;;;;;;;-6.98;58.09;99932.47;4795451;29;20051;-86
2023/01/29 11:06:03;;;;;;;22.60;10.10;;;;;;;-6.93;58.58;99931.59;4779196;30;20420;-82
2023/01/29 11:08:39;;;;;;;21.70;9.90;;;;;;;-7.07;57.88;99922.06;4795650;30;20058;-84
2023/01/29 11:11:10;;;;;;;19.98;7.50;;;;;;;-7.15;58.05;99928.09;4780552;30;20051;-85
2023/01/29 11:13:59;;;;;;;20.55;9.32;;;;;;;-7.27;58.34;99925.50;4764566;30;20138;-85
2023/01/29 11:16:28;;;;;;;19.50;8.07;;;;;;;-7.25;58.19;99929.00;4794009;30;20500;-84
2023/01/29 11:19:00;;;;;;;11.75;6.80;;;;;;;-7.40;58.41;99929.84;4793895;30;20627;-84
2023/01/29 11:21:27;;;;;;;14.13;6.80;;;;;;;-7.40;58.40;99936.75;4782879;30;20051;-85
2023/01/29 11:24:07;;;;;;;17.13;7.93;;;;;;;-7.33;58.18;99925.53;4795844;29;20055;-85
2023/01/29 11:26:37;;;;;;;12.77;7.38;;;;;;;-7.38;58.29;99927.22;4765274;29;20503;-86
2023/01/29 11:29:03;;;;;;;14.13;7.03;;;;;;;-7.50;58.06;99927.22;4779892;30;20078;-87
2023/01/29 11:31:36;;;;;;;13.00;7.28;;;;;;;-7.47;58.38;99927.22;4779270;30;20058;-87
2023/01/29 11:34:05;;;;;;;11.88;6.82;;;;;;;-7.52;58.25;99928.91;4786559;30;20085;-88
2023/01/29 11:36:38;;;;;;;;;;;;;;;-7.53;58.62;99933.25;4781390;30;20505;-85
2023/01/29 11:39:10;;;;;;;19.02;7.55;;;;;;;-7.82;58.90;99933.19;4792473;29;19929;-86
2023/01/29 11:41:48;;;;;;;12.80;7.00;;;;;;;-7.83;59.46;99940.06;4777041;30;20071;-86
2023/01/29 11:44:18;;;;;;;14.60;6.65;;;;;;;-7.85;59.62;99934.03;4776495;30;20051;-85
2023/01/29 11:46:44;;;;;;;22.38;9.25;;;;;;;-7.86;59.96;99939.19;4774692;30;20126;-86
2023/01/29 11:49:30;;;;;;;17.88;7.70;;;;;;;-7.94;59.94;99930.53;4775518;30;20167;-85
2023/01/29 11:52:00;;;;;;;21.60;8.93;;;;;;;-7.89;60.12;99934.03;4761028;30;20051;-86
2023/01/29 11:54:35;;;;;;;22.65;8.95;;;;;;;-7.92;60.14;99929.69;4776379;30;20090;-86
2023/01/29 11:57:03;;;;;;;18.20;8.40;;;;;;;-7.79;60.08;99935.78;4762642;30;20109;-86
2023/01/29 11:59:48;;;;;;;23.75;8.90;;;;;;;-7.70;59.92;99941.00;4749043;30;20044;-85
2023/01/29 12:02:21;;;;;;;14.65;8.18;;;;;;;-7.79;59.89;99940.97;4776045;30;20052;-87
2023/01/29 12:04:47;;;;;;;21.65;9.52;;;;;;;-7.88;59.96;99934.00;4771265;30;20104;-84
2023/01/29 12:07:16;;;;;;;17.55;8.77;;;;;;;-7.90;59.87;99937.47;4778062;30;20063;-85